Silverton, Idaho
Current Conditions -  °F | °C
As of 5:25 AM on Wednesday 22 Oct 2014 (Local Time) from KMLP Reporting Station
Haze Haze  
Wind Chill: 25°   Ceiling: Unl
Heat Index: 33°   Visibility: 5mi
Dew Point: 32°   Wind: 9mph
Humidity: 96%   Direction: 170°S
Pressure: 29.99"   Gusts: 16mph
Location:  47.49°N, 115.95°W
Report Text: KMLP 221225Z AUTO 17008G14KT 5SM BR FEW001 01/00 A2999 RMK AO2 T00060000
Loading
Personal Weather Stations






























Interactive Weather Map
Tropical Storm Tracking
New forecast layout! Learn more

10-Day Weather Forecast

Advertisements
Track Severe Weather on mobile